VHHH/HKG METAR and TAF weather

Enter ICAO airport designator
Station Type Date Time Source
VHHH METAR 2022/01/23 12:30 UTC NOAA

VHHH 231230Z 26003KT 9999 FEW018 SCT035 19/17 Q1013 NOSIG


Station Type Date Time Source
VHHH Decoded METAR 2022/01/23 12:30 UTC NOAA

Hong Kong Inter-National Airport, Hong Kong (VHHH) 22-20N 114-11E 24M
Jan 23, 2022 - 07:30 AM EST / 2022.01.23 1230 UTC
Wind: from the W (260 degrees) at 3 MPH (3 KT):0
Visibility: greater than 7 mile(s):0
Sky conditions: partly cloudy
Temperature: 66 F (19 C)
Dew Point: 62 F (17 C)
Relative Humidity: 88%
Pressure (altimeter): 29.91 in. Hg (1013 hPa)
ob: VHHH 231230Z 26003KT 9999 FEW018 SCT035 19/17 Q1013 NOSIG
cycle: 12

Station Type Date Time Source
VHHH TAF 2022/01/23 12:24 UTC NOAA

TAF VHHH 231100Z 2312/2418 08010KT 9000 FEW015 SCT030 TX21/2406Z TN18/2323Z TN16/2418Z
TEMPO 2312/2321 VRB05KT 4000 BR -RA
BECMG 2321/2323 36010KT
BECMG 2409/2411 06010KT

Example: see airport list